createdAt,value
2022-12-20T00:03:02.657Z,101021.97
2022-12-20T00:09:48.308Z,101003.75
2022-12-20T00:16:36.446Z,101002.91
2022-12-20T00:23:21.823Z,100995.41
2022-12-20T00:30:08.989Z,100976.59
2022-12-20T00:36:56.995Z,100963.25
2022-12-20T00:43:43.485Z,100970.41
2022-12-20T00:50:28.999Z,100968.81
2022-12-20T00:57:16.953Z,100974.88
2022-12-20T01:04:03.302Z,100877.19
2022-12-20T01:10:48.844Z,100988.78
2022-12-20T01:17:36.890Z,100989.66
2022-12-20T01:24:23.685Z,100972.16
2022-12-20T01:31:10.931Z,100966.97
2022-12-20T01:37:58.908Z,100957.84
2022-12-20T01:45:15.053Z,100929.78
2022-12-20T01:52:09.021Z,100915.69
2022-12-20T01:58:59.766Z,100956.78
2022-12-20T02:05:48.286Z,100937.22
2022-12-20T02:12:42.629Z,100957.66
2022-12-20T02:20:17.709Z,100926.13
2022-12-20T02:27:48.025Z,100895.78
2022-12-20T02:34:40.077Z,100890.84
2022-12-20T02:41:35.079Z,100870.97
2022-12-20T02:48:21.922Z,100863.38
2022-12-20T02:55:11.373Z,100864.22
2022-12-20T03:01:59.653Z,100879.25
2022-12-20T03:08:45.490Z,100876.38
2022-12-20T03:15:33.615Z,100872.00
2022-12-20T03:22:21.056Z,100862.47
2022-12-20T03:29:07.343Z,100858.13
2022-12-20T03:35:55.377Z,100842.09
2022-12-20T03:42:41.844Z,100820.34
2022-12-20T04:02:52.526Z,100844.94
2022-12-20T04:09:38.219Z,100854.22
2022-12-20T04:16:31.415Z,100844.81
2022-12-20T04:23:19.612Z,100840.50
2022-12-20T04:30:06.554Z,100825.78
2022-12-20T04:36:52.292Z,100815.59
2022-12-20T04:44:02.225Z,100784.13
2022-12-20T04:50:55.321Z,100782.44
2022-12-20T04:57:41.259Z,100806.97
2022-12-20T05:04:35.287Z,100809.38
2022-12-20T05:11:23.205Z,100774.34
2022-12-20T05:18:09.947Z,100791.78
2022-12-20T05:25:19.888Z,100788.41
2022-12-20T05:32:07.628Z,100803.25
2022-12-20T05:39:03.668Z,100798.91
2022-12-20T05:45:55.334Z,100786.34
2022-12-20T05:52:50.900Z,100792.66
2022-12-20T05:59:37.904Z,100788.66
2022-12-20T06:06:29.127Z,100772.59
2022-12-20T06:13:15.158Z,100778.91
2022-12-20T06:20:01.020Z,100773.25
2022-12-20T06:26:50.301Z,100761.03
2022-12-20T06:33:37.079Z,100748.78
2022-12-20T06:40:22.713Z,100750.69
2022-12-20T06:47:10.875Z,100724.97
2022-12-20T06:53:57.062Z,100703.31
2022-12-20T07:00:43.070Z,100762.31
2022-12-20T07:07:31.105Z,100780.47
2022-12-20T07:14:16.496Z,100789.84
2022-12-20T07:21:04.372Z,100769.44
2022-12-20T07:27:54.005Z,100782.06
2022-12-20T07:34:40.770Z,100694.91
2022-12-20T07:41:26.223Z,100730.59
2022-12-20T07:48:18.110Z,100741.16
2022-12-20T07:55:08.783Z,100736.00
2022-12-20T08:02:00.709Z,100743.69
2022-12-20T08:08:57.594Z,100725.72
2022-12-20T08:15:43.205Z,100726.25
2022-12-20T08:22:28.741Z,100716.16
2022-12-20T08:29:16.933Z,100697.09
2022-12-20T08:36:03.762Z,100716.19
2022-12-20T08:42:49.261Z,100697.66
2022-12-20T08:49:40.053Z,100684.03
2022-12-20T08:56:29.481Z,100687.34
2022-12-20T09:03:15.424Z,100683.56
2022-12-20T09:10:03.503Z,100676.22
2022-12-20T09:16:49.278Z,100678.16
2022-12-20T09:23:37.144Z,100671.03
2022-12-20T09:30:25.301Z,100692.34
2022-12-20T09:37:11.306Z,100707.09
2022-12-20T09:43:57.018Z,100612.06
2022-12-20T09:50:56.678Z,100671.31
2022-12-20T09:58:02.045Z,100668.56
2022-12-20T10:04:48.029Z,100658.16
2022-12-20T10:11:54.442Z,100664.16
2022-12-20T10:18:59.062Z,100662.22
2022-12-20T10:25:46.141Z,100644.75
2022-12-20T10:32:34.244Z,100631.88
2022-12-20T10:39:19.732Z,100628.34
2022-12-20T10:46:08.857Z,100635.94
2022-12-20T10:53:25.531Z,100545.88
2022-12-20T11:00:32.013Z,100619.22
2022-12-20T11:07:28.832Z,100598.94
2022-12-20T11:14:21.560Z,100596.94
2022-12-20T11:21:28.060Z,100591.19
2022-12-20T11:28:32.434Z,100568.16
2022-12-20T11:35:25.888Z,100545.16
2022-12-20T11:42:24.562Z,100549.44
2022-12-20T11:49:54.773Z,100550.75
2022-12-20T11:56:47.147Z,100539.25
2022-12-20T12:03:38.448Z,100528.50
2022-12-20T12:10:27.989Z,100510.34
2022-12-20T12:17:32.115Z,100493.84
2022-12-20T12:24:27.611Z,100484.00
2022-12-20T12:31:20.185Z,100472.47
2022-12-20T12:38:44.528Z,100479.25
2022-12-20T12:45:33.371Z,100489.56
2022-12-20T12:52:39.991Z,100459.44
2022-12-20T12:59:55.256Z,100441.72
2022-12-20T13:06:59.432Z,100454.53
2022-12-20T13:13:44.882Z,100440.22
2022-12-20T13:20:35.199Z,100421.84
2022-12-20T13:27:33.803Z,100425.41
2022-12-20T13:34:42.242Z,100382.06
2022-12-20T13:41:38.094Z,100406.09
2022-12-20T13:48:30.985Z,100420.53
2022-12-20T13:55:29.199Z,100416.59
2022-12-20T14:02:25.492Z,100427.09
2022-12-20T14:09:31.740Z,100417.72
2022-12-20T14:16:21.184Z,100324.25
2022-12-20T14:23:15.545Z,100412.03
2022-12-20T14:30:01.001Z,100404.84
2022-12-20T14:36:49.021Z,100392.50
2022-12-20T14:43:38.911Z,100383.66
2022-12-20T14:50:30.737Z,100401.34
2022-12-20T14:57:26.904Z,100390.09
2022-12-20T15:04:33.026Z,100372.53
2022-12-20T15:11:24.236Z,100379.44
2022-12-20T15:18:15.390Z,100348.38
2022-12-20T15:25:04.001Z,100358.09
2022-12-20T15:31:51.444Z,100390.00
2022-12-20T15:45:47.379Z,100347.13
2022-12-20T15:52:34.041Z,100332.59
2022-12-20T15:59:57.811Z,100345.03
2022-12-20T16:06:27.735Z,100324.25
2022-12-20T16:13:21.204Z,100346.16
2022-12-20T16:20:08.862Z,100335.31
2022-12-20T16:26:56.915Z,100340.81
2022-12-20T16:33:42.360Z,100352.38
2022-12-20T16:40:30.360Z,100352.97
2022-12-20T16:47:18.765Z,100366.97
2022-12-20T16:54:19.430Z,100342.88
2022-12-20T17:01:07.046Z,100358.41
2022-12-20T17:07:59.753Z,100356.00
2022-12-20T17:14:45.309Z,100351.56
2022-12-20T17:28:39.699Z,100325.84
2022-12-20T17:35:30.684Z,100308.94
2022-12-20T17:42:16.886Z,100326.97
2022-12-20T17:49:05.040Z,100310.81
2022-12-20T17:55:50.378Z,100317.88
2022-12-20T18:02:35.917Z,100326.75
2022-12-20T18:09:25.176Z,100314.06
2022-12-20T18:16:11.892Z,100315.63
2022-12-20T18:22:57.355Z,100319.16
2022-12-20T18:29:45.670Z,100313.34
2022-12-20T18:36:34.648Z,100286.41
2022-12-20T18:43:20.210Z,100307.41
2022-12-20T18:50:11.996Z,100292.50
2022-12-20T18:56:58.564Z,100274.34
2022-12-20T19:03:44.351Z,100284.50
2022-12-20T19:10:35.262Z,100268.13
2022-12-20T19:17:20.622Z,100261.47
2022-12-20T19:24:09.806Z,100274.50
2022-12-20T19:30:58.580Z,100275.03
2022-12-20T19:37:44.043Z,100277.84
2022-12-20T19:44:29.504Z,100281.84
2022-12-20T19:51:19.663Z,100268.50
2022-12-20T19:58:05.041Z,100282.50
2022-12-20T20:04:50.390Z,100288.59
2022-12-20T20:11:38.451Z,100299.00
2022-12-20T20:18:28.241Z,100303.69
2022-12-20T20:25:13.998Z,100322.44
2022-12-20T20:32:03.372Z,100299.75
2022-12-20T20:38:49.906Z,100314.50
2022-12-20T20:45:35.572Z,100304.22
2022-12-20T20:52:23.868Z,100294.81
2022-12-20T20:59:15.155Z,100299.69
2022-12-20T21:13:12.051Z,100269.03
2022-12-20T21:19:57.564Z,100273.91
2022-12-20T21:26:43.197Z,100265.34
2022-12-20T21:33:32.248Z,100259.09
2022-12-20T21:40:17.903Z,100248.66
2022-12-20T21:47:03.472Z,100230.28
2022-12-20T21:53:54.126Z,100225.63
2022-12-20T22:00:39.578Z,100246.84
2022-12-20T22:07:24.990Z,100239.09
2022-12-20T22:14:16.200Z,100225.91
2022-12-20T22:21:01.963Z,100221.97
2022-12-20T22:27:47.345Z,100235.31
2022-12-20T22:34:35.450Z,100223.53
2022-12-20T22:41:23.736Z,100221.00
2022-12-20T22:48:09.479Z,100219.06
2022-12-20T22:54:57.622Z,100218.25
2022-12-20T23:01:43.232Z,100216.31
2022-12-20T23:08:31.336Z,100191.03
2022-12-20T23:15:31.942Z,100202.00
2022-12-20T23:22:29.814Z,100212.75
2022-12-20T23:29:16.141Z,100185.63
2022-12-20T23:36:07.788Z,100204.34
2022-12-20T23:42:56.553Z,100198.44
2022-12-20T23:49:41.943Z,100201.78
2022-12-20T23:56:29.959Z,100202.22
